Time;durP1;ratioP1;P1;durP2;ratioP2;P2;SDS_P1;SDS_P2;PMS_P1;PMS_P2;Temp;Humidity;BMP_temperature;BMP_pressure;BME280_temperature;BME280_humidity;BME280_pressure;Samples;Min_cycle;Max_cycle;Signal;HPM_P1;HPM_P2
2023/04/04 00:00:37;;;;;;;3.40;2.20;;;;;;;1.29;58.41;99929.22;5077791;28;20239;-81
2023/04/04 00:03:05;;;;;;;2.83;2.20;;;;;;;1.27;57.56;99935.63;5063377;28;20197;-80
2023/04/04 00:05:34;;;;;;;3.43;2.27;;;;;;;1.35;57.87;99940.16;5070359;28;20216;-82
2023/04/04 00:08:02;;;;;;;2.87;2.30;;;;;;;1.29;57.95;99929.22;5045244;28;20244;-80
2023/04/04 00:10:29;;;;;;;4.03;2.20;;;;;;;1.34;57.57;99941.97;5071532;28;20238;-79
2023/04/04 00:12:55;;;;;;;3.40;2.27;;;;;;;1.45;57.58;99952.25;5063088;28;20205;-80
2023/04/04 00:15:22;;;;;;;2.40;1.80;;;;;;;1.18;57.44;99947.91;5064903;28;20201;-82
2023/04/04 00:17:49;;;;;;;2.70;2.17;;;;;;;1.32;57.52;99950.03;5072665;28;20213;-82
2023/04/04 00:20:16;;;;;;;3.17;2.67;;;;;;;1.37;56.79;99946.09;5069409;28;20193;-81
2023/04/04 00:22:43;;;;;;;3.57;2.30;;;;;;;1.27;57.24;99954.09;5054047;28;20198;-80
2023/04/04 00:25:11;;;;;;;2.77;1.90;;;;;;;1.31;57.06;99943.06;5076882;28;20188;-82
2023/04/04 00:27:37;;;;;;;2.87;2.30;;;;;;;1.27;57.21;99932.97;5072404;28;20225;-81
2023/04/04 00:30:05;;;;;;;2.30;2.10;;;;;;;1.31;56.78;99944.88;5077061;28;20212;-81
2023/04/04 00:32:32;;;;;;;2.83;1.80;;;;;;;1.25;56.81;99940.22;5052850;28;20233;-81
2023/04/04 00:34:59;;;;;;;3.00;2.13;;;;;;;1.23;57.02;99934.25;5074395;28;20251;-81
2023/04/04 00:37:26;;;;;;;3.90;2.10;;;;;;;1.32;56.83;99938.63;5075719;28;20185;-81
2023/04/04 00:39:53;;;;;;;2.80;2.20;;;;;;;1.16;57.43;99943.78;5077234;28;20200;-81
2023/04/04 00:42:20;;;;;;;2.57;1.93;;;;;;;1.12;56.76;99948.50;5080593;28;20637;-81
2023/04/04 00:44:47;;;;;;;4.90;2.37;;;;;;;1.05;57.18;99936.94;5078232;28;20223;-81
2023/04/04 00:47:14;;;;;;;3.27;2.20;;;;;;;1.17;56.98;99945.41;5076285;28;20197;-81
2023/04/04 00:49:41;;;;;;;3.00;2.03;;;;;;;1.13;57.45;99950.19;5081880;28;20192;-81
2023/04/04 00:52:08;;;;;;;2.90;2.00;;;;;;;1.13;57.40;99949.34;5081745;28;20193;-81
2023/04/04 00:54:35;;;;;;;2.97;1.90;;;;;;;0.97;57.85;99957.97;5079478;28;20203;-81
2023/04/04 00:57:03;;;;;;;3.50;2.20;;;;;;;0.97;57.73;99957.97;5063861;28;20200;-81
2023/04/04 00:59:31;;;;;;;3.00;2.00;;;;;;;0.92;57.61;99956.75;5081702;28;20193;-82
2023/04/04 01:01:59;;;;;;;4.30;2.10;;;;;;;0.92;57.87;99949.66;5075535;28;20189;-81
2023/04/04 01:04:28;;;;;;;3.80;2.07;;;;;;;0.87;58.12;99951.91;5070905;28;20212;-80
2023/04/04 01:06:55;;;;;;;2.50;2.00;;;;;;;0.97;57.92;99943.94;5057704;28;20746;-81
2023/04/04 01:09:22;;;;;;;3.40;2.03;;;;;;;1.08;57.71;99948.97;5037752;28;20211;-80
2023/04/04 01:11:50;;;;;;;2.63;2.03;;;;;;;0.98;57.90;99942.97;5060676;28;20200;-82
2023/04/04 01:14:17;;;;;;;3.13;2.40;;;;;;;1.04;57.78;99945.81;5066598;28;20205;-81
2023/04/04 01:16:44;;;;;;;2.23;2.03;;;;;;;0.93;58.50;99943.41;5082102;28;20196;-80
2023/04/04 01:19:23;;;;;;;2.07;1.70;;;;;;;0.91;58.30;99937.44;5070263;28;20197;-80
2023/04/04 01:21:51;;;;;;;3.27;2.00;;;;;;;0.94;58.62;99944.22;5044134;28;20194;-81
2023/04/04 01:24:21;;;;;;;3.97;2.27;;;;;;;0.89;59.19;99939.41;5050839;28;20202;-81
2023/04/04 01:26:55;;;;;;;3.03;2.03;;;;;;;0.82;59.47;99941.81;5054528;28;20214;-82
2023/04/04 01:29:22;;;;;;;4.17;2.37;;;;;;;0.85;59.79;99945.97;5065474;28;20209;-81
2023/04/04 01:31:56;;;;;;;3.23;2.20;;;;;;;0.90;60.03;99943.69;5065262;28;20281;-81
2023/04/04 01:34:43;;;;;;;2.63;2.13;;;;;;;0.75;60.71;99943.38;5049265;28;20223;-79
2023/04/04 01:37:18;;;;;;;3.43;2.20;;;;;;;0.82;60.76;99944.47;5056888;28;20561;-80
2023/04/04 01:39:52;;;;;;;3.07;2.37;;;;;;;0.84;60.73;99942.47;5052853;28;20184;-80
2023/04/04 01:42:19;;;;;;;2.90;2.33;;;;;;;0.86;60.60;99945.81;5056665;28;20721;-81
2023/04/04 01:44:53;;;;;;;4.23;2.53;;;;;;;0.85;60.68;99944.16;5037162;28;20648;-80
2023/04/04 01:47:21;;;;;;;4.43;2.30;;;;;;;0.90;60.88;99938.41;5055913;28;20186;-79
2023/04/04 01:49:48;;;;;;;3.33;2.20;;;;;;;0.93;60.85;99950.50;5047257;28;20561;-80
2023/04/04 01:52:15;;;;;;;3.63;2.50;;;;;;;0.94;60.55;99934.50;5045189;28;20547;-80
2023/04/04 01:54:42;;;;;;;2.40;2.10;;;;;;;1.02;60.64;99934.59;5053798;28;20216;-80
2023/04/04 01:57:09;;;;;;;3.67;2.23;;;;;;;1.10;60.66;99934.66;5054308;28;20194;-80
2023/04/04 01:59:36;;;;;;;2.47;2.13;;;;;;;1.02;60.74;99929.31;5064379;28;20196;-80
2023/04/04 02:02:02;;;;;;;2.57;2.03;;;;;;;1.13;60.09;99925.59;5052558;28;20193;-79
2023/04/04 02:04:29;;;;;;;3.00;2.00;;;;;;;1.21;60.57;99923.06;5057047;28;20277;-79
2023/04/04 02:06:56;;;;;;;3.57;2.13;;;;;;;1.22;60.10;99922.03;5055170;28;20190;-80
2023/04/04 02:09:23;;;;;;;2.47;2.03;;;;;;;1.28;59.56;99924.09;5050468;28;20209;-80
2023/04/04 02:11:50;;;;;;;3.07;2.40;;;;;;;1.22;59.71;99916.75;5054212;28;20201;-79
2023/04/04 02:14:18;;;;;;;3.30;2.30;;;;;;;1.20;59.40;99921.38;5054378;28;20208;-80
2023/04/04 02:16:45;;;;;;;6.23;3.30;;;;;;;1.21;59.91;99921.22;5068747;28;20181;-81
2023/04/04 02:19:11;;;;;;;2.80;2.00;;;;;;;1.20;59.88;99919.56;5078062;28;20189;-81
2023/04/04 02:21:38;;;;;;;2.10;1.70;;;;;;;1.12;59.89;99913.41;5061575;28;20198;-82
2023/04/04 02:24:06;;;;;;;3.20;2.00;;;;;;;1.05;59.88;99909.69;5053610;28;20706;-80
2023/04/04 02:26:33;;;;;;;2.70;1.93;;;;;;;1.02;59.70;99912.66;5068781;28;20190;-81
2023/04/04 02:28:59;;;;;;;3.53;2.20;;;;;;;1.05;59.46;99910.53;5046631;28;20206;-82
2023/04/04 02:31:26;;;;;;;2.30;2.10;;;;;;;0.96;59.84;99907.97;5066007;28;20201;-80
2023/04/04 02:33:54;;;;;;;3.17;1.97;;;;;;;0.83;60.33;99914.47;5070364;28;20277;-81
2023/04/04 02:36:21;;;;;;;3.87;2.20;;;;;;;0.89;60.06;99905.09;5063759;28;20219;-82
2023/04/04 02:38:50;;;;;;;3.07;2.17;;;;;;;0.83;60.08;99911.00;5062315;28;20193;-81
2023/04/04 02:41:19;;;;;;;5.00;2.43;;;;;;;0.91;60.01;99918.16;5058579;28;20186;-82
2023/04/04 02:43:49;;;;;;;3.47;1.90;;;;;;;0.95;60.02;99915.06;5063588;28;20190;-81
2023/04/04 02:46:17;;;;;;;2.10;1.90;;;;;;;1.01;60.29;99909.19;5065569;28;20192;-81
2023/04/04 02:48:54;;;;;;;2.83;2.27;;;;;;;0.93;60.18;99911.75;5063839;28;20198;-81
2023/04/04 02:51:21;;;;;;;2.70;2.10;;;;;;;0.98;59.83;99912.09;5064308;28;20189;-82
2023/04/04 02:53:48;;;;;;;3.70;2.10;;;;;;;0.95;59.79;99917.69;5064260;28;20304;-82
2023/04/04 02:56:20;;;;;;;3.17;2.20;;;;;;;1.01;60.20;99903.06;5061523;28;20225;-81
2023/04/04 02:58:47;;;;;;;3.23;2.10;;;;;;;0.93;60.17;99900.38;5054063;28;20285;-81
2023/04/04 03:01:14;;;;;;;4.13;2.60;;;;;;;1.01;60.12;99900.44;5064756;28;20204;-81
2023/04/04 03:03:41;;;;;;;2.80;2.00;;;;;;;0.89;59.95;99895.38;5062433;28;20190;-81
2023/04/04 03:06:08;;;;;;;2.53;1.83;;;;;;;0.92;60.01;99901.34;5057360;28;20216;-81
2023/04/04 03:08:35;;;;;;;2.20;1.93;;;;;;;0.96;60.05;99894.78;5058812;28;20189;-81
2023/04/04 03:11:03;;;;;;;2.97;1.83;;;;;;;1.00;59.88;99893.50;5057750;28;20270;-81
2023/04/04 03:13:30;;;;;;;2.33;1.93;;;;;;;0.91;60.58;99887.31;5046649;28;20214;-82
2023/04/04 03:16:02;;;;;;;2.43;1.73;;;;;;;0.78;60.77;99892.16;5044879;28;20197;-82
2023/04/04 03:18:40;;;;;;;4.33;2.10;;;;;;;0.52;61.18;99894.69;5055284;28;20293;-82
2023/04/04 03:21:07;;;;;;;4.27;2.37;;;;;;;0.50;61.49;99885.28;5045602;28;20202;-82
2023/04/04 03:23:34;;;;;;;2.77;1.93;;;;;;;0.57;61.85;99888.97;5061133;28;20203;-81
2023/04/04 03:26:01;;;;;;;2.80;2.40;;;;;;;0.55;61.62;99873.31;5043166;28;20265;-81
2023/04/04 03:28:28;;;;;;;3.67;2.43;;;;;;;0.58;61.67;99880.09;5071780;28;20208;-81
2023/04/04 03:30:55;;;;;;;5.20;2.30;;;;;;;0.52;61.81;99884.16;5067430;28;20246;-81
2023/04/04 03:33:22;;;;;;;4.20;2.37;;;;;;;0.42;62.78;99880.78;5064228;28;20305;-80
2023/04/04 03:35:49;;;;;;;2.90;2.30;;;;;;;0.38;62.80;99885.47;5069983;28;20648;-81
2023/04/04 03:38:16;;;;;;;3.47;2.10;;;;;;;0.50;62.40;99875.56;5070546;28;20220;-81
2023/04/04 03:40:43;;;;;;;3.03;2.20;;;;;;;0.37;62.37;99868.00;5044447;28;20209;-81
2023/04/04 03:43:11;;;;;;;4.10;2.40;;;;;;;0.47;62.11;99865.31;5020819;28;20198;-79
2023/04/04 03:45:39;;;;;;;4.17;2.20;;;;;;;0.39;62.68;99875.78;5048306;28;20281;-79
2023/04/04 03:48:08;;;;;;;3.20;2.57;;;;;;;0.30;63.23;99866.94;5042583;28;20273;-81
2023/04/04 03:50:36;;;;;;;3.33;2.13;;;;;;;0.34;63.59;99867.47;5053556;28;20204;-79
2023/04/04 03:53:03;;;;;;;3.07;1.90;;;;;;;0.33;63.72;99861.38;5056226;28;20200;-81
2023/04/04 03:55:30;;;;;;;3.07;2.27;;;;;;;0.32;63.44;99858.91;5055229;28;20225;-81
2023/04/04 03:57:58;;;;;;;3.17;2.03;;;;;;;0.32;63.80;99864.19;5036755;28;20274;-80
2023/04/04 04:00:25;;;;;;;3.43;2.30;;;;;;;0.15;63.90;99859.69;5065724;28;20197;-80
2023/04/04 04:02:52;;;;;;;2.40;1.73;;;;;;;0.19;64.21;99863.69;5060366;28;20202;-80
2023/04/04 04:05:19;;;;;;;4.57;2.20;;;;;;;0.21;63.76;99854.66;5061565;28;20277;-80
2023/04/04 04:07:45;;;;;;;3.47;2.37;;;;;;;0.21;64.03;99867.84;5062329;28;20276;-80
2023/04/04 04:10:15;;;;;;;3.37;2.40;;;;;;;0.13;63.92;99856.38;5051505;28;20265;-81
2023/04/04 04:12:42;;;;;;;4.10;2.20;;;;;;;0.05;64.46;99856.31;5057055;28;20197;-80
2023/04/04 04:15:09;;;;;;;2.47;2.10;;;;;;;0.10;64.29;99862.75;5053265;28;20757;-80
2023/04/04 04:17:39;;;;;;;3.77;1.90;;;;;;;0.10;64.72;99867.19;5046020;28;20221;-81
2023/04/04 04:20:08;;;;;;;3.87;2.23;;;;;;;0.19;63.86;99866.31;5058736;28;20731;-80
2023/04/04 04:22:45;;;;;;;3.40;2.30;;;;;;;-0.06;64.56;99868.69;5059516;28;20228;-80
2023/04/04 04:25:13;;;;;;;3.87;2.47;;;;;;;0.07;64.32;99860.44;5030260;28;20205;-80
2023/04/04 04:27:43;;;;;;;2.73;2.00;;;;;;;-0.05;64.82;99859.78;5052745;28;20296;-81
2023/04/04 04:30:11;;;;;;;3.23;2.20;;;;;;;-0.17;64.49;99860.13;5059323;28;20209;-80
2023/04/04 04:32:42;;;;;;;3.70;2.00;;;;;;;-0.06;64.84;99866.06;5058642;28;20240;-81
2023/04/04 04:35:10;;;;;;;3.87;2.17;;;;;;;-0.08;64.62;99877.69;5053796;28;20217;-81
2023/04/04 04:37:37;;;;;;;7.73;2.43;;;;;;;-0.22;65.32;99880.81;5033670;28;20194;-80
2023/04/04 04:40:07;;;;;;;2.57;2.20;;;;;;;-0.04;64.82;99890.44;5043859;28;20202;-80
2023/04/04 04:42:44;;;;;;;2.33;1.93;;;;;;;0.07;63.82;99876.25;5034249;28;20579;-80
2023/04/04 04:45:14;;;;;;;2.20;2.00;;;;;;;-0.08;64.47;99877.69;5049689;28;20193;-80
2023/04/04 04:47:45;;;;;;;5.90;3.00;;;;;;;0.07;64.16;99888.59;5054490;28;20213;-81
2023/04/04 04:50:16;;;;;;;4.53;2.33;;;;;;;0.04;64.27;99884.44;5053041;28;20182;-79
2023/04/04 04:52:49;;;;;;;3.33;2.37;;;;;;;0.09;64.29;99889.28;5063686;28;20205;-80
2023/04/04 04:55:16;;;;;;;3.13;2.33;;;;;;;0.07;63.98;99885.94;5049609;28;20236;-80
2023/04/04 04:57:49;;;;;;;2.97;2.20;;;;;;;0.07;64.92;99899.94;5061095;28;20212;-80
2023/04/04 05:00:22;;;;;;;3.87;2.20;;;;;;;0.11;64.07;99882.88;5044681;28;20200;-80
2023/04/04 05:02:49;;;;;;;2.77;2.20;;;;;;;0.22;63.67;99897.66;5053210;28;20205;-80
2023/04/04 05:05:25;;;;;;;2.33;1.90;;;;;;;0.33;62.81;99903.53;5068154;28;20201;-80
2023/04/04 05:08:02;;;;;;;3.87;2.27;;;;;;;0.43;62.92;99909.59;5056199;28;20200;-81
2023/04/04 05:10:30;;;;;;;4.10;2.20;;;;;;;0.60;62.46;99907.97;5066300;28;20262;-80
2023/04/04 05:12:57;;;;;;;3.10;1.87;;;;;;;0.60;61.56;99910.63;5063758;28;20215;-80
2023/04/04 05:15:28;;;;;;;4.07;2.17;;;;;;;0.66;61.73;99917.91;5067857;28;20224;-80
2023/04/04 05:17:54;;;;;;;3.70;1.90;;;;;;;0.68;61.80;99915.97;5070514;28;20269;-80
2023/04/04 05:20:22;;;;;;;4.57;2.17;;;;;;;0.84;60.99;99920.59;5058298;28;20228;-80
2023/04/04 05:22:50;;;;;;;2.40;1.73;;;;;;;0.89;60.61;99915.66;5059042;28;20201;-80
2023/04/04 05:25:24;;;;;;;3.50;2.00;;;;;;;0.84;61.05;99920.59;5052286;28;20619;-80
2023/04/04 05:27:51;;;;;;;2.50;1.90;;;;;;;0.93;60.72;99927.59;5065335;28;20196;-82
2023/04/04 05:30:20;;;;;;;4.57;1.97;;;;;;;0.98;59.93;99929.78;5057126;28;20188;-82
2023/04/04 05:32:57;;;;;;;4.50;2.03;;;;;;;1.03;59.54;99920.41;5068183;28;20238;-82
2023/04/04 05:35:27;;;;;;;3.20;2.33;;;;;;;1.07;59.44;99926.22;5040794;28;20285;-81
2023/04/04 05:37:56;;;;;;;2.70;1.73;;;;;;;1.11;59.56;99931.06;5062313;28;20262;-82
2023/04/04 05:40:23;;;;;;;2.50;1.83;;;;;;;1.17;59.10;99927.78;5068492;28;20189;-81
2023/04/04 05:43:03;;;;;;;3.70;1.80;;;;;;;1.28;59.28;99932.84;5054736;28;20197;-82
2023/04/04 05:45:36;;;;;;;3.03;1.90;;;;;;;1.39;58.77;99942.34;5059937;28;20256;-82
2023/04/04 05:48:05;;;;;;;2.30;1.57;;;;;;;1.49;57.98;99932.50;5073011;28;20372;-81
2023/04/04 05:50:39;;;;;;;2.33;1.70;;;;;;;1.47;58.04;99941.56;5055497;28;20216;-81
2023/04/04 05:53:06;;;;;;;2.40;1.60;;;;;;;1.59;57.69;99932.38;5058359;28;20185;-81
2023/04/04 05:55:33;;;;;;;3.00;1.70;;;;;;;1.51;57.61;99930.53;5077550;28;20300;-81
2023/04/04 05:58:00;;;;;;;3.20;1.63;;;;;;;1.65;56.67;99937.06;5078763;28;20200;-82
2023/04/04 06:00:42;;;;;;;2.17;1.57;;;;;;;1.62;57.28;99946.13;5062716;28;20200;-82
2023/04/04 06:03:09;;;;;;;2.20;1.67;;;;;;;1.65;57.84;99944.97;5066267;28;20232;-82
2023/04/04 06:05:36;;;;;;;3.50;1.87;;;;;;;1.85;57.72;99941.16;5072392;28;20213;-81
2023/04/04 06:08:03;;;;;;;3.07;2.17;;;;;;;1.89;57.17;99952.22;5076396;28;20190;-80
2023/04/04 06:10:30;;;;;;;4.53;2.77;;;;;;;1.65;57.65;99961.66;5058286;28;20205;-82
2023/04/04 06:12:57;;;;;;;4.00;2.27;;;;;;;1.76;57.81;99936.81;5055290;28;20277;-81
2023/04/04 06:15:24;;;;;;;5.23;2.37;;;;;;;1.64;58.02;99945.97;5074900;28;20234;-81
2023/04/04 06:17:51;;;;;;;2.93;1.93;;;;;;;1.44;58.28;99933.94;5084202;28;20212;-81
2023/04/04 06:20:20;;;;;;;5.47;1.93;;;;;;;1.69;58.44;99943.69;5042186;28;20300;-81
2023/04/04 06:22:48;;;;;;;6.03;3.07;;;;;;;1.65;58.27;99942.34;5043783;28;20194;-81
2023/04/04 06:25:16;;;;;;;3.10;2.37;;;;;;;1.96;58.18;99935.59;5056670;28;20198;-81
2023/04/04 06:27:45;;;;;;;3.83;1.80;;;;;;;1.89;58.26;99945.13;5060379;28;20220;-82
2023/04/04 06:30:15;;;;;;;4.30;1.93;;;;;;;1.90;58.31;99949.44;5074489;28;20213;-82
2023/04/04 06:32:53;;;;;;;2.53;1.40;;;;;;;1.90;57.94;99949.44;5072482;28;20229;-82
2023/04/04 06:35:30;;;;;;;5.23;2.03;;;;;;;1.78;58.51;99943.56;5051606;28;20206;-83
2023/04/04 06:37:59;;;;;;;3.20;1.97;;;;;;;2.04;58.52;99943.56;5061672;28;20190;-82
2023/04/04 06:40:28;;;;;;;3.53;2.00;;;;;;;2.20;58.23;99948.09;5063053;28;20204;-81
2023/04/04 06:42:57;;;;;;;6.50;2.20;;;;;;;2.10;58.01;99944.78;5060007;28;20209;-82
2023/04/04 06:45:34;;;;;;;4.47;2.40;;;;;;;2.17;59.03;99943.13;5054849;28;20216;-82
2023/04/04 06:48:02;;;;;;;2.67;1.73;;;;;;;2.59;58.40;99935.19;5050165;28;20210;-81
2023/04/04 06:50:32;;;;;;;2.67;1.80;;;;;;;2.50;57.98;99930.88;5074548;28;20189;-81
2023/04/04 06:53:01;;;;;;;1.93;1.70;;;;;;;2.26;57.22;99942.19;5081786;28;20193;-80
2023/04/04 06:55:29;;;;;;;4.60;2.20;;;;;;;2.15;57.38;99934.53;5068060;28;20591;-81
2023/04/04 06:57:55;;;;;;;2.27;2.07;;;;;;;2.44;57.08;99937.63;5078346;28;20197;-80
2023/04/04 07:00:22;;;;;;;2.97;1.83;;;;;;;2.68;57.64;99939.53;5070620;28;20189;-81
2023/04/04 07:02:49;;;;;;;5.30;2.00;;;;;;;2.81;56.77;99936.41;5067117;28;20210;-81
2023/04/04 07:05:16;;;;;;;3.77;1.87;;;;;;;2.61;56.96;99938.53;5049409;28;20218;-80
2023/04/04 07:07:45;;;;;;;2.87;1.90;;;;;;;2.74;57.26;99928.28;5062424;28;20225;-80
2023/04/04 07:10:12;;;;;;;5.10;4.07;;;;;;;2.79;56.79;99933.09;5062901;28;20204;-80
2023/04/04 07:12:40;;;;;;;3.50;3.20;;;;;;;2.79;56.69;99922.53;5064179;28;20198;-81
2023/04/04 07:15:07;;;;;;;2.57;2.23;;;;;;;3.03;56.22;99923.34;5071793;28;20572;-81
2023/04/04 07:17:37;;;;;;;2.50;2.10;;;;;;;2.65;56.01;99937.22;5075353;28;20284;-81
2023/04/04 07:20:05;;;;;;;2.40;1.90;;;;;;;2.64;56.04;99919.66;5073673;28;20222;-81
2023/04/04 07:22:32;;;;;;;2.37;1.87;;;;;;;2.82;56.31;99932.78;5073938;28;20183;-80
2023/04/04 07:24:59;;;;;;;2.83;2.10;;;;;;;2.56;56.15;99939.00;5068298;28;20189;-81
2023/04/04 07:27:26;;;;;;;2.60;1.83;;;;;;;2.51;56.12;99954.53;5069200;28;20203;-79
2023/04/04 07:29:53;;;;;;;2.80;1.77;;;;;;;2.56;56.43;99941.66;5048216;28;20213;-79
2023/04/04 07:32:19;;;;;;;2.60;1.80;;;;;;;2.70;55.94;99939.38;5052280;28;20221;-79
2023/04/04 07:34:49;;;;;;;2.17;1.40;;;;;;;2.28;55.60;99936.75;5047052;28;20638;-80
2023/04/04 07:37:17;;;;;;;2.93;2.00;;;;;;;2.80;56.22;99940.06;5051528;28;20229;-79
2023/04/04 07:39:44;;;;;;;2.57;2.10;;;;;;;2.66;55.49;99923.78;5063621;28;20275;-82
2023/04/04 07:42:11;;;;;;;2.50;2.30;;;;;;;2.71;55.24;99931.25;5080038;28;20193;-81
2023/04/04 07:44:37;;;;;;;3.90;2.70;;;;;;;2.73;55.39;99939.03;5066561;28;20194;-80
2023/04/04 07:47:05;;;;;;;3.70;2.20;;;;;;;3.25;54.89;99944.91;5077235;28;20257;-82
2023/04/04 07:49:36;;;;;;;2.83;1.40;;;;;;;2.92;54.52;99950.16;5042100;28;20201;-80
2023/04/04 07:52:03;;;;;;;2.47;1.83;;;;;;;3.12;54.61;99947.22;5077949;28;20197;-81
2023/04/04 07:54:30;;;;;;;2.07;1.30;;;;;;;2.99;54.31;99945.03;5070170;28;20269;-81
2023/04/04 07:56:57;;;;;;;3.60;1.83;;;;;;;3.21;54.44;99943.59;5064066;28;20245;-81
2023/04/04 07:59:24;;;;;;;3.07;1.77;;;;;;;3.12;54.57;99948.03;5046463;28;20201;-81
2023/04/04 08:01:51;;;;;;;5.07;1.77;;;;;;;3.28;54.29;99952.50;5073234;28;20199;-80
2023/04/04 08:04:18;;;;;;;3.90;2.70;;;;;;;3.13;54.15;99944.38;5079119;28;20185;-81
2023/04/04 08:06:45;;;;;;;4.00;1.90;;;;;;;3.62;54.02;99949.69;5078246;28;20190;-81
2023/04/04 08:09:12;;;;;;;2.43;1.77;;;;;;;3.82;53.34;99951.00;5056536;28;20201;-81
2023/04/04 08:11:39;;;;;;;2.70;1.70;;;;;;;3.91;52.93;99947.34;5069430;28;20200;-81
2023/04/04 08:14:05;;;;;;;1.97;1.70;;;;;;;3.84;52.83;99938.38;5067162;28;20189;-81
2023/04/04 08:16:32;;;;;;;3.63;1.80;;;;;;;3.45;53.67;99952.34;5071499;28;20188;-81
2023/04/04 08:18:59;;;;;;;3.87;2.00;;;;;;;4.07;53.12;99944.63;5064204;28;20261;-81
2023/04/04 08:21:26;;;;;;;2.77;2.00;;;;;;;3.84;52.92;99941.88;5078491;28;20192;-81
2023/04/04 08:23:53;;;;;;;3.07;2.00;;;;;;;4.19;52.21;99931.84;5067927;28;20192;-82
2023/04/04 08:26:20;;;;;;;3.10;1.77;;;;;;;4.22;51.90;99942.09;5076432;28;20194;-81
2023/04/04 08:28:48;;;;;;;2.67;1.70;;;;;;;4.54;51.16;99941.97;5072829;28;20194;-81
2023/04/04 08:31:15;;;;;;;3.00;1.73;;;;;;;4.36;51.14;99936.91;5072882;28;20274;-81
2023/04/04 08:33:43;;;;;;;1.93;1.40;;;;;;;3.63;52.15;99940.75;5072565;28;20245;-81
2023/04/04 08:36:14;;;;;;;2.80;1.77;;;;;;;4.27;52.07;99937.09;5076576;28;20583;-81
2023/04/04 08:38:41;;;;;;;2.53;1.67;;;;;;;4.19;51.37;99935.31;5069933;28;20185;-81
2023/04/04 08:41:08;;;;;;;1.97;1.73;;;;;;;4.96;49.84;99925.63;5065482;28;20208;-81
2023/04/04 08:43:36;;;;;;;2.13;1.83;;;;;;;4.85;49.35;99918.88;5058026;28;20196;-81
2023/04/04 08:46:04;;;;;;;2.33;1.80;;;;;;;4.47;50.16;99908.34;5074732;28;20193;-81
2023/04/04 08:48:32;;;;;;;2.23;1.83;;;;;;;4.54;50.31;99910.13;5067675;28;20564;-81
2023/04/04 08:50:59;;;;;;;14.87;9.60;;;;;;;4.89;49.41;99898.13;5064594;28;20198;-80
2023/04/04 08:53:28;;;;;;;15.03;9.57;;;;;;;5.69;49.57;99895.81;5053072;28;20273;-81
2023/04/04 08:55:56;;;;;;;4.23;3.47;;;;;;;5.60;48.40;99896.88;5064575;28;20214;-81
2023/04/04 08:58:23;;;;;;;9.33;6.70;;;;;;;4.42;48.28;99922.13;5071949;28;20197;-81
2023/04/04 09:00:54;;;;;;;8.07;6.13;;;;;;;4.66;47.83;99894.66;5074764;28;20185;-80
2023/04/04 09:03:25;;;;;;;7.33;6.13;;;;;;;4.56;48.31;99902.81;5069746;28;20189;-81
2023/04/04 09:05:53;;;;;;;5.60;4.30;;;;;;;4.95;47.86;99910.69;5060858;28;20301;-81
2023/04/04 09:08:22;;;;;;;7.67;5.50;;;;;;;5.47;47.85;99905.47;5070625;28;20209;-81
2023/04/04 09:10:51;;;;;;;5.40;4.60;;;;;;;5.02;48.62;99906.34;5047715;28;20201;-81
2023/04/04 09:13:18;;;;;;;5.10;3.93;;;;;;;4.80;49.02;99902.69;5072329;28;20217;-80
2023/04/04 09:15:48;;;;;;;2.77;2.43;;;;;;;4.75;47.74;99896.25;5075996;28;20226;-80
2023/04/04 09:18:15;;;;;;;4.17;2.60;;;;;;;4.50;48.73;99895.56;5065009;28;20275;-81
2023/04/04 09:20:45;;;;;;;3.80;3.50;;;;;;;4.62;47.98;99893.34;5066899;28;20190;-81
2023/04/04 09:23:17;;;;;;;3.13;2.83;;;;;;;4.33;47.99;99894.81;5064018;28;20679;-81
2023/04/04 09:25:49;;;;;;;3.63;3.00;;;;;;;4.50;48.19;99892.06;5069868;28;20280;-82
2023/04/04 09:28:20;;;;;;;3.07;2.20;;;;;;;4.09;48.27;99884.31;5075054;28;20192;-81
2023/04/04 09:30:48;;;;;;;4.33;2.80;;;;;;;4.65;48.07;99877.88;5078193;28;20185;-80
2023/04/04 09:33:17;;;;;;;2.50;1.87;;;;;;;4.21;48.46;99882.91;5072011;28;21943;-80
2023/04/04 09:35:46;;;;;;;3.13;2.33;;;;;;;4.74;48.09;99879.50;5068793;28;20212;-81
2023/04/04 09:38:14;;;;;;;3.50;2.00;;;;;;;4.65;48.00;99869.94;5060196;28;20276;-81
2023/04/04 09:40:41;;;;;;;2.63;2.30;;;;;;;4.97;48.34;99876.84;5060512;28;20194;-81
2023/04/04 09:43:11;;;;;;;4.20;2.40;;;;;;;4.93;48.80;99883.50;5073715;28;20216;-81
2023/04/04 09:45:40;;;;;;;2.47;2.20;;;;;;;5.52;46.77;99875.69;5054543;28;20188;-81
2023/04/04 09:48:10;;;;;;;3.13;2.07;;;;;;;5.35;46.67;99880.34;5077417;28;20209;-81
2023/04/04 09:50:44;;;;;;;2.47;1.70;;;;;;;5.21;46.45;99886.44;5058241;28;20220;-80
2023/04/04 09:53:18;;;;;;;2.50;2.00;;;;;;;5.35;45.84;99875.03;5067874;28;20207;-80
2023/04/04 09:55:52;;;;;;;2.67;1.70;;;;;;;5.23;46.71;99876.44;5069549;28;20301;-81
2023/04/04 09:58:30;;;;;;;2.00;1.80;;;;;;;5.19;46.77;99891.09;5064988;28;20200;-80
2023/04/04 10:01:00;;;;;;;2.03;1.83;;;;;;;4.91;46.24;99869.56;5072849;28;20189;-81
2023/04/04 10:03:27;;;;;;;2.33;2.00;;;;;;;4.79;46.81;99868.34;5067919;28;20635;-80
2023/04/04 10:06:13;;;;;;;2.03;1.60;;;;;;;4.57;46.13;99869.97;5055761;28;20208;-81
2023/04/04 10:08:41;;;;;;;2.23;1.47;;;;;;;4.77;47.27;99879.13;5079121;28;20184;-81
2023/04/04 10:11:08;;;;;;;2.30;2.07;;;;;;;4.66;47.38;99860.97;5070615;28;20205;-80
2023/04/04 10:13:45;;;;;;;3.70;2.10;;;;;;;5.24;47.99;99855.03;5073967;28;20196;-81
2023/04/04 10:16:12;;;;;;;3.10;2.10;;;;;;;5.97;47.69;99870.22;5067488;28;20209;-81
2023/04/04 10:18:41;;;;;;;2.50;2.07;;;;;;;5.92;47.11;99855.88;5079642;28;20182;-81
2023/04/04 10:21:08;;;;;;;2.10;1.90;;;;;;;5.29;46.04;99857.97;5059652;28;20190;-82
2023/04/04 10:23:40;;;;;;;3.30;2.10;;;;;;;5.76;46.18;99847.03;5076787;28;20192;-81
2023/04/04 10:26:07;;;;;;;2.17;1.87;;;;;;;5.58;46.02;99851.88;5080568;28;20196;-81
2023/04/04 10:28:34;;;;;;;3.60;2.00;;;;;;;5.63;46.14;99857.47;5030818;28;20204;-81
2023/04/04 10:31:20;;;;;;;2.50;1.90;;;;;;;5.58;45.17;99859.84;5059542;28;20565;-82
2023/04/04 10:33:53;;;;;;;2.60;2.30;;;;;;;5.74;46.19;99854.34;5073653;28;20224;-80
2023/04/04 10:36:22;;;;;;;3.23;2.10;;;;;;;5.73;45.61;99851.88;5059767;28;20206;-82
2023/04/04 10:39:05;;;;;;;1.90;1.70;;;;;;;5.91;44.99;99847.06;5064457;28;20217;-81
2023/04/04 10:41:32;;;;;;;2.67;1.90;;;;;;;5.91;44.84;99844.41;5073157;28;20217;-81
2023/04/04 10:44:00;;;;;;;2.67;1.90;;;;;;;5.69;45.27;99834.66;5072482;28;20199;-81
2023/04/04 10:46:30;;;;;;;3.10;1.90;;;;;;;5.24;45.52;99835.59;5058111;28;20724;-82
2023/04/04 10:48:59;;;;;;;2.60;2.07;;;;;;;5.86;46.15;99841.44;5063453;28;20192;-81
2023/04/04 10:51:26;;;;;;;2.53;1.97;;;;;;;5.84;45.37;99824.00;5061213;28;20182;-82
2023/04/04 10:53:53;;;;;;;2.70;1.90;;;;;;;6.16;45.93;99844.91;5055779;28;20197;-80
2023/04/04 10:56:21;;;;;;;2.53;2.00;;;;;;;5.63;44.39;99827.41;5070480;28;20221;-81
2023/04/04 10:58:48;;;;;;;3.27;2.30;;;;;;;5.51;43.99;99839.47;5068598;28;20652;-81
2023/04/04 11:01:19;;;;;;;2.70;1.80;;;;;;;5.66;44.74;99821.72;5070305;28;20193;-81
2023/04/04 11:04:20;;;;;;;3.13;1.87;;;;;;;6.00;44.19;99811.38;5083210;28;20204;-80
2023/04/04 11:07:17;;;;;;;4.10;2.20;;;;;;;5.86;43.98;99809.53;5075226;28;20189;-81
2023/04/04 11:09:57;;;;;;;2.03;1.83;;;;;;;6.11;44.57;99802.91;5081564;28;20218;-81
2023/04/04 11:12:37;;;;;;;3.13;2.27;;;;;;;5.88;44.92;99780.94;5069309;28;20193;-81
2023/04/04 11:15:09;;;;;;;2.20;1.87;;;;;;;6.03;45.56;99792.38;5053744;28;20236;-81
2023/04/04 11:17:48;;;;;;;4.67;2.63;;;;;;;5.89;46.22;99795.06;5076774;28;20262;-81
2023/04/04 11:20:20;;;;;;;5.70;2.70;;;;;;;5.83;46.24;99793.94;5082996;28;20197;-81
2023/04/04 11:23:02;;;;;;;4.47;2.80;;;;;;;5.71;46.35;99782.13;5078068;28;20189;-81
2023/04/04 11:25:40;;;;;;;4.17;2.30;;;;;;;5.65;45.60;99780.19;5074196;28;20197;-81
2023/04/04 11:28:24;;;;;;;3.87;2.40;;;;;;;5.89;46.17;99790.56;5070617;28;20195;-81
2023/04/04 11:31:16;;;;;;;3.97;2.20;;;;;;;5.55;45.66;99769.84;5069912;28;20625;-81
2023/04/04 11:34:04;;;;;;;2.37;2.17;;;;;;;5.85;45.92;99769.81;5091167;28;20250;-81
2023/04/04 11:36:37;;;;;;;2.40;2.20;;;;;;;5.86;45.61;99747.53;5077616;28;20207;-80
2023/04/04 11:39:21;;;;;;;2.63;1.90;;;;;;;5.89;45.69;99745.34;5074892;28;20193;-81
2023/04/04 11:41:52;;;;;;;4.17;2.10;;;;;;;6.13;44.38;99753.00;5066016;28;20190;-82
2023/04/04 11:44:22;;;;;;;1.90;1.70;;;;;;;5.92;44.29;99750.31;5062027;28;20205;-81
2023/04/04 11:46:57;;;;;;;3.07;1.80;;;;;;;5.89;44.26;99760.47;5081532;28;20193;-81
2023/04/04 11:49:31;;;;;;;3.17;2.10;;;;;;;5.75;44.37;99744.34;5054267;28;20204;-81
2023/04/04 11:51:57;;;;;;;2.73;2.27;;;;;;;5.74;43.60;99732.06;5067402;28;20277;-81